Terminal Aerodrome Forecast
Issued by NWS

Home | Current Version | Previous Version | Text Only | Print | Product List | Glossary On
Versions: 1 2 3 4 5 6 7 8 9 10 11 12 13 14 15 16
000
FTUS41 KGYX 031134
TAFAUG
TAF
KAUG 031134Z 0312/0412 27006KT P6SM SKC
     FM032000 19006KT P6SM BKN100
     FM040100 18009G17KT 3SM -SN BR OVC015
      TEMPO 0403/0407 3/4SM -SN BR OVC005
     FM041000 22009KT 5SM -SHSN BR OVC015=

USA.gov is the U.S. government's official web portal to all federal, state and local government web resources and services.